Portada
METAR-TAF:

METAR-TAF

Aeroports :

Plataforma petroliera

D15-fa-1, Països Baixos

latitud: 54-19-32N, longitud: 2-56-09E, altitud: 36 m

Observació

L'informe es va fer fa 26 minuts, a les 19:55 UTC
Vent 14 kt del Est/Sud-Est
Temperatura 19°C
Humitat 88%
Pressió 1020 hPa
Visibilitat 10 km o més

METAR: EHDV 241955Z AUTO 12014KT 9999 NCD 19/17 Q1020 W///H///

Hora: 22:21 (20:21 UTC)


TAF: manca

Observacions i pronòstics meteorològics de més de 4000 aeroports (METAR i TAF).

Les estacions disponibles són els punts grocs i vermells al mapa.

Posi el ratolí al punt desitjat per veure el nom de l'estació.

Feu clic per veure les observacions i els pronòstics meteorològics.

Per canviar el mapa: feu clic els botons verds amb una creu de color negre per apropar; al botó verd amb un guió per allunyar la imatge; o en les fletxes verdes per a mapes adjacents.


METAR-TAF: